AXB2C VOMM-VOBL
Flight info
| Callsign | AXB2C |
|---|---|
| Flight time | 0h 37m |
| Altitude | 16000 |
| Route | XIVIL2A/07 XIVIL W117 BIA |
| Aircraft | B738/M-SDE2E3FGHIRWXY/LB1 |
Departure
| Time | 2026-05-06 17:19 |
|---|---|
| Airport | Chennai International Airport (VOMM) |
Arrival
| Time | 2026-05-06 17:56 |
|---|---|
| Airport | Kempegowda International Airport Bengaluru (VOBL) |
| Time | Latitude | Longitude | Altitude | Speed | Heading |
|---|---|---|---|---|---|
| 2026-05-06 17:06 | 12.98370 | 80.15924 | 47 ft | 0 kts | 338° |
| 2026-05-06 17:13 | 12.98364 | 80.15926 | 54 ft | 2 kts | 338° |
| 2026-05-06 17:14 | 12.98346 | 80.15934 | 46 ft | 3 kts | 338° |
| 2026-05-06 17:14 | 12.98327 | 80.15941 | 46 ft | 3 kts | 338° |
| 2026-05-06 17:14 | 12.98312 | 80.15948 | 49 ft | 3 kts | 326° |
| 2026-05-06 17:14 | 12.98300 | 80.15960 | 46 ft | 3 kts | 278° |
| 2026-05-06 17:15 | 12.98302 | 80.15978 | 51 ft | 3 kts | 248° |
| 2026-05-06 17:15 | 12.98305 | 80.15986 | 51 ft | 0 kts | 247° |
| 2026-05-06 17:16 | 12.98305 | 80.15985 | 51 ft | 1 kts | 247° |
| 2026-05-06 17:16 | 12.98296 | 80.15963 | 49 ft | 6 kts | 249° |
| 2026-05-06 17:16 | 12.98291 | 80.15899 | 53 ft | 12 kts | 283° |
| 2026-05-06 17:17 | 12.98321 | 80.15796 | 52 ft | 18 kts | 286° |
| 2026-05-06 17:17 | 12.98359 | 80.15659 | 50 ft | 22 kts | 286° |
| 2026-05-06 17:17 | 12.98384 | 80.15566 | 55 ft | 7 kts | 285° |
| 2026-05-06 17:17 | 12.98385 | 80.15560 | 55 ft | 0 kts | 285° |
| 2026-05-06 17:18 | 12.98385 | 80.15559 | 55 ft | 1 kts | 285° |
| 2026-05-06 17:18 | 12.98402 | 80.15502 | 49 ft | 15 kts | 289° |
| 2026-05-06 17:18 | 12.98482 | 80.15482 | 55 ft | 15 kts | 47° |
| 2026-05-06 17:18 | 12.98525 | 80.15588 | 53 ft | 20 kts | 69° |
| 2026-05-06 17:19 | 12.98588 | 80.15759 | 53 ft | 31 kts | 69° |
| 2026-05-06 17:19 | 12.98763 | 80.16224 | 50 ft | 112 kts | 69° |
| 2026-05-06 17:19 | 12.99141 | 80.17216 | 82 ft | 182 kts | 70° |
| 2026-05-06 17:19 | 12.99647 | 80.18500 | 746 ft | 201 kts | 71° |
| 2026-05-06 17:20 | 13.00372 | 80.19755 | 1507 ft | 218 kts | 50° |
| 2026-05-06 17:20 | 13.01613 | 80.20780 | 2027 ft | 241 kts | 32° |
| 2026-05-06 17:20 | 13.03222 | 80.21247 | 2582 ft | 249 kts | 358° |
| 2026-05-06 17:20 | 13.04843 | 80.20637 | 3046 ft | 256 kts | 321° |
| 2026-05-06 17:21 | 13.05822 | 80.19128 | 3485 ft | 260 kts | 283° |
| 2026-05-06 17:21 | 13.05782 | 80.17269 | 3768 ft | 271 kts | 248° |
| 2026-05-06 17:21 | 13.05048 | 80.15453 | 4207 ft | 282 kts | 258° |
| 2026-05-06 17:21 | 13.05179 | 80.13485 | 5019 ft | 279 kts | 286° |
| 2026-05-06 17:22 | 13.05754 | 80.11569 | 5678 ft | 284 kts | 288° |
| 2026-05-06 17:22 | 13.06325 | 80.09616 | 6353 ft | 287 kts | 287° |
| 2026-05-06 17:22 | 13.06859 | 80.07632 | 6997 ft | 290 kts | 285° |
| 2026-05-06 17:22 | 13.07358 | 80.05617 | 7636 ft | 294 kts | 285° |
| 2026-05-06 17:23 | 13.07832 | 80.03569 | 8270 ft | 297 kts | 284° |
| 2026-05-06 17:23 | 13.08285 | 80.01499 | 8905 ft | 301 kts | 284° |
| 2026-05-06 17:23 | 13.08713 | 79.99471 | 9533 ft | 304 kts | 284° |
| 2026-05-06 17:23 | 13.09149 | 79.97348 | 10115 ft | 309 kts | 283° |
| 2026-05-06 17:24 | 13.09599 | 79.95118 | 10282 ft | 330 kts | 283° |
| 2026-05-06 17:24 | 13.10070 | 79.92754 | 10445 ft | 349 kts | 283° |
| 2026-05-06 17:24 | 13.10563 | 79.90246 | 10576 ft | 366 kts | 283° |
| 2026-05-06 17:24 | 13.11073 | 79.87634 | 10728 ft | 381 kts | 283° |
| 2026-05-06 17:25 | 13.11595 | 79.84940 | 11113 ft | 387 kts | 282° |
| 2026-05-06 17:25 | 13.12118 | 79.82229 | 11655 ft | 388 kts | 282° |
| 2026-05-06 17:25 | 13.12642 | 79.79510 | 12230 ft | 389 kts | 282° |
| 2026-05-06 17:25 | 13.13166 | 79.76787 | 12819 ft | 390 kts | 282° |
| 2026-05-06 17:26 | 13.13690 | 79.74065 | 13372 ft | 392 kts | 282° |
| 2026-05-06 17:26 | 13.14218 | 79.71321 | 13903 ft | 394 kts | 282° |
| 2026-05-06 17:26 | 13.14750 | 79.68556 | 14386 ft | 395 kts | 282° |
| 2026-05-06 17:26 | 13.15283 | 79.65785 | 14885 ft | 397 kts | 282° |
| 2026-05-06 17:27 | 13.15813 | 79.63030 | 15527 ft | 391 kts | 282° |
| 2026-05-06 17:27 | 13.16338 | 79.60296 | 15823 ft | 389 kts | 282° |
| 2026-05-06 17:27 | 13.16867 | 79.57542 | 15865 ft | 400 kts | 282° |
| 2026-05-06 17:27 | 13.17413 | 79.54700 | 15895 ft | 411 kts | 282° |
| 2026-05-06 17:28 | 13.17973 | 79.51786 | 15895 ft | 421 kts | 282° |
| 2026-05-06 17:28 | 13.18535 | 79.48854 | 15896 ft | 428 kts | 282° |
| 2026-05-06 17:28 | 13.19109 | 79.45857 | 15876 ft | 427 kts | 282° |
| 2026-05-06 17:28 | 13.19680 | 79.42873 | 15877 ft | 426 kts | 282° |
| 2026-05-06 17:29 | 13.20251 | 79.39887 | 15901 ft | 428 kts | 281° |
| 2026-05-06 17:29 | 13.20828 | 79.36869 | 15900 ft | 432 kts | 281° |
| 2026-05-06 17:29 | 13.21404 | 79.33855 | 15889 ft | 430 kts | 281° |
| 2026-05-06 17:29 | 13.21979 | 79.30843 | 15893 ft | 430 kts | 281° |
| 2026-05-06 17:30 | 13.22552 | 79.27838 | 15907 ft | 429 kts | 281° |
| 2026-05-06 17:30 | 13.23126 | 79.24831 | 15902 ft | 429 kts | 281° |
| 2026-05-06 17:30 | 13.23700 | 79.21822 | 15904 ft | 429 kts | 281° |
| 2026-05-06 17:30 | 13.24272 | 79.18816 | 15904 ft | 430 kts | 281° |
| 2026-05-06 17:31 | 13.24846 | 79.15804 | 15905 ft | 430 kts | 281° |
| 2026-05-06 17:31 | 13.25418 | 79.12797 | 15913 ft | 430 kts | 281° |
| 2026-05-06 17:31 | 13.25991 | 79.09779 | 15908 ft | 430 kts | 281° |
| 2026-05-06 17:31 | 13.26563 | 79.06768 | 15902 ft | 429 kts | 281° |
| 2026-05-06 17:32 | 13.27132 | 79.03769 | 15912 ft | 426 kts | 282° |
| 2026-05-06 17:32 | 13.27700 | 79.00776 | 15911 ft | 429 kts | 282° |
| 2026-05-06 17:32 | 13.28248 | 78.97888 | 15908 ft | 429 kts | 281° |
| 2026-05-06 17:32 | 13.28818 | 78.94877 | 15922 ft | 431 kts | 282° |
| 2026-05-06 17:33 | 13.29300 | 78.91858 | 15905 ft | 427 kts | 276° |
| 2026-05-06 17:33 | 13.29313 | 78.88805 | 15930 ft | 429 kts | 267° |
| 2026-05-06 17:33 | 13.29081 | 78.85754 | 15915 ft | 430 kts | 266° |
| 2026-05-06 17:33 | 13.28843 | 78.82690 | 15934 ft | 431 kts | 266° |
| 2026-05-06 17:34 | 13.28610 | 78.79625 | 15927 ft | 431 kts | 266° |
| 2026-05-06 17:34 | 13.28386 | 78.76562 | 15927 ft | 430 kts | 267° |
| 2026-05-06 17:34 | 13.28169 | 78.73511 | 15929 ft | 429 kts | 267° |
| 2026-05-06 17:34 | 13.27957 | 78.70460 | 15924 ft | 427 kts | 266° |
| 2026-05-06 17:35 | 13.27752 | 78.67482 | 15928 ft | 409 kts | 267° |
| 2026-05-06 17:35 | 13.27556 | 78.64617 | 15927 ft | 399 kts | 267° |
| 2026-05-06 17:35 | 13.27361 | 78.61763 | 15947 ft | 402 kts | 267° |
| 2026-05-06 17:36 | 13.27035 | 78.56954 | 15953 ft | 408 kts | 267° |
| 2026-05-06 17:36 | 13.26769 | 78.53068 | 15941 ft | 407 kts | 267° |
| 2026-05-06 17:36 | 13.26638 | 78.51150 | 15943 ft | 407 kts | 267° |
| 2026-05-06 17:36 | 13.26439 | 78.48261 | 15943 ft | 406 kts | 267° |
| 2026-05-06 17:37 | 13.26241 | 78.45377 | 15940 ft | 405 kts | 267° |
| 2026-05-06 17:37 | 13.26042 | 78.42489 | 15944 ft | 405 kts | 267° |
| 2026-05-06 17:37 | 13.25842 | 78.39606 | 15947 ft | 406 kts | 267° |
| 2026-05-06 17:37 | 13.25642 | 78.36714 | 15953 ft | 406 kts | 267° |
| 2026-05-06 17:38 | 13.25443 | 78.33839 | 15955 ft | 406 kts | 267° |
| 2026-05-06 17:38 | 13.25242 | 78.30950 | 15948 ft | 406 kts | 267° |
| 2026-05-06 17:38 | 13.25042 | 78.28059 | 15952 ft | 406 kts | 267° |
| 2026-05-06 17:38 | 13.24840 | 78.25167 | 15953 ft | 406 kts | 267° |
| 2026-05-06 17:39 | 13.24638 | 78.22271 | 15961 ft | 406 kts | 267° |
| 2026-05-06 17:39 | 13.24436 | 78.19384 | 15958 ft | 406 kts | 266° |
| 2026-05-06 17:39 | 13.24234 | 78.16494 | 15957 ft | 406 kts | 266° |
| 2026-05-06 17:39 | 13.24031 | 78.13602 | 15959 ft | 406 kts | 267° |
| 2026-05-06 17:40 | 13.23828 | 78.10703 | 15962 ft | 406 kts | 267° |
| 2026-05-06 17:40 | 13.23625 | 78.07818 | 15964 ft | 406 kts | 267° |
| 2026-05-06 17:40 | 13.23421 | 78.04921 | 15970 ft | 406 kts | 267° |
| 2026-05-06 17:40 | 13.23217 | 78.02035 | 15962 ft | 406 kts | 266° |
| 2026-05-06 17:41 | 13.23044 | 77.99234 | 15969 ft | 408 kts | 271° |
| 2026-05-06 17:41 | 13.23407 | 77.96388 | 15970 ft | 397 kts | 285° |
| 2026-05-06 17:41 | 13.24142 | 77.93705 | 15963 ft | 383 kts | 288° |
| 2026-05-06 17:41 | 13.24918 | 77.91153 | 15955 ft | 368 kts | 288° |
| 2026-05-06 17:42 | 13.25685 | 77.88700 | 15953 ft | 355 kts | 288° |
| 2026-05-06 17:42 | 13.26305 | 77.86284 | 15810 ft | 346 kts | 286° |
| 2026-05-06 17:42 | 13.26988 | 77.83918 | 15384 ft | 345 kts | 288° |
| 2026-05-06 17:42 | 13.27691 | 77.81613 | 15337 ft | 332 kts | 288° |
| 2026-05-06 17:43 | 13.28372 | 77.79406 | 15290 ft | 321 kts | 289° |
| 2026-05-06 17:43 | 13.29037 | 77.77251 | 15149 ft | 313 kts | 289° |
| 2026-05-06 17:43 | 13.29690 | 77.75129 | 14827 ft | 312 kts | 289° |
| 2026-05-06 17:43 | 13.30346 | 77.72996 | 14473 ft | 313 kts | 289° |
| 2026-05-06 17:44 | 13.30994 | 77.70869 | 14170 ft | 312 kts | 289° |
| 2026-05-06 17:44 | 13.31634 | 77.68749 | 13881 ft | 310 kts | 289° |
| 2026-05-06 17:44 | 13.32259 | 77.66664 | 13543 ft | 310 kts | 289° |
| 2026-05-06 17:44 | 13.32893 | 77.64542 | 13198 ft | 309 kts | 289° |
| 2026-05-06 17:45 | 13.33519 | 77.62446 | 12959 ft | 302 kts | 289° |
| 2026-05-06 17:45 | 13.34112 | 77.60443 | 12856 ft | 286 kts | 289° |
| 2026-05-06 17:45 | 13.34550 | 77.58502 | 12723 ft | 274 kts | 273° |
| 2026-05-06 17:45 | 13.34212 | 77.56618 | 12409 ft | 273 kts | 247° |
| 2026-05-06 17:46 | 13.33284 | 77.54906 | 12112 ft | 275 kts | 240° |
| 2026-05-06 17:46 | 13.32264 | 77.53244 | 11835 ft | 274 kts | 239° |
| 2026-05-06 17:46 | 13.31255 | 77.51636 | 11732 ft | 261 kts | 239° |
| 2026-05-06 17:46 | 13.30291 | 77.50114 | 11622 ft | 247 kts | 238° |
| 2026-05-06 17:47 | 13.29389 | 77.48691 | 11543 ft | 230 kts | 239° |
| 2026-05-06 17:47 | 13.28526 | 77.47336 | 11226 ft | 224 kts | 239° |
| 2026-05-06 17:47 | 13.27683 | 77.46003 | 10824 ft | 223 kts | 239° |
| 2026-05-06 17:47 | 13.26847 | 77.44666 | 10408 ft | 222 kts | 239° |
| 2026-05-06 17:48 | 13.26008 | 77.43322 | 9936 ft | 225 kts | 239° |
| 2026-05-06 17:48 | 13.25168 | 77.41975 | 9520 ft | 223 kts | 238° |
| 2026-05-06 17:48 | 13.24345 | 77.40637 | 9112 ft | 222 kts | 239° |
| 2026-05-06 17:48 | 13.23517 | 77.39287 | 9043 ft | 227 kts | 238° |
| 2026-05-06 17:49 | 13.22619 | 77.37947 | 8996 ft | 229 kts | 225° |
| 2026-05-06 17:49 | 13.21274 | 77.37156 | 8900 ft | 222 kts | 189° |
| 2026-05-06 17:49 | 13.19786 | 77.37263 | 8758 ft | 213 kts | 154° |
| 2026-05-06 17:49 | 13.18670 | 77.38171 | 8426 ft | 204 kts | 118° |
| 2026-05-06 17:50 | 13.18317 | 77.39529 | 8044 ft | 198 kts | 82° |
| 2026-05-06 17:50 | 13.18777 | 77.40832 | 7680 ft | 197 kts | 61° |
| 2026-05-06 17:50 | 13.19470 | 77.42051 | 7328 ft | 198 kts | 59° |
| 2026-05-06 17:50 | 13.20181 | 77.43247 | 7069 ft | 194 kts | 59° |
| 2026-05-06 17:51 | 13.20791 | 77.44467 | 6781 ft | 191 kts | 78° |
| 2026-05-06 17:51 | 13.20856 | 77.45830 | 6415 ft | 192 kts | 89° |
| 2026-05-06 17:51 | 13.20879 | 77.47193 | 6092 ft | 191 kts | 89° |
| 2026-05-06 17:51 | 13.20888 | 77.48541 | 6043 ft | 192 kts | 90° |
| 2026-05-06 17:52 | 13.20883 | 77.49923 | 5989 ft | 193 kts | 90° |
| 2026-05-06 17:52 | 13.20873 | 77.51286 | 5981 ft | 191 kts | 91° |
| 2026-05-06 17:52 | 13.20860 | 77.52643 | 5926 ft | 190 kts | 91° |
| 2026-05-06 17:52 | 13.20847 | 77.54016 | 5701 ft | 194 kts | 91° |
| 2026-05-06 17:53 | 13.20834 | 77.55405 | 5460 ft | 193 kts | 92° |
| 2026-05-06 17:53 | 13.20822 | 77.56763 | 5227 ft | 188 kts | 93° |
| 2026-05-06 17:53 | 13.20810 | 77.58067 | 4993 ft | 177 kts | 93° |
| 2026-05-06 17:53 | 13.20800 | 77.59292 | 4775 ft | 167 kts | 94° |
| 2026-05-06 17:54 | 13.20790 | 77.60427 | 4594 ft | 155 kts | 95° |
| 2026-05-06 17:54 | 13.20779 | 77.61521 | 4364 ft | 153 kts | 93° |
| 2026-05-06 17:54 | 13.20769 | 77.62609 | 4196 ft | 152 kts | 94° |
| 2026-05-06 17:54 | 13.20759 | 77.63700 | 3993 ft | 153 kts | 92° |
| 2026-05-06 17:55 | 13.20750 | 77.64811 | 3790 ft | 158 kts | 93° |
| 2026-05-06 17:55 | 13.20738 | 77.65933 | 3595 ft | 155 kts | 92° |
| 2026-05-06 17:55 | 13.20728 | 77.67040 | 3372 ft | 154 kts | 92° |
| 2026-05-06 17:55 | 13.20719 | 77.68133 | 3139 ft | 153 kts | 92° |
| 2026-05-06 17:56 | 13.20714 | 77.69193 | 3014 ft | 142 kts | 90° |
| 2026-05-06 17:56 | 13.20706 | 77.70080 | 3010 ft | 103 kts | 91° |
| 2026-05-06 17:56 | 13.20702 | 77.70659 | 3010 ft | 59 kts | 91° |
| 2026-05-06 17:56 | 13.20671 | 77.70922 | 3013 ft | 16 kts | 109° |
| 2026-05-06 17:57 | 13.20662 | 77.70948 | 3009 ft | 5 kts | 111° |
| 2026-05-06 17:57 | 13.20640 | 77.70995 | 3013 ft | 9 kts | 117° |
| 2026-05-06 17:57 | 13.20605 | 77.71055 | 3011 ft | 11 kts | 121° |
| 2026-05-06 17:57 | 13.20571 | 77.71114 | 3010 ft | 8 kts | 120° |
| 2026-05-06 17:58 | 13.20569 | 77.71118 | 3010 ft | 0 kts | 120° |